Puvirnituq - southern half: Past 24 Hour Conditions

 

Resolute Airport

10:00 PM CDT 21 October 2014
This table is a summary of hourly weather conditions for the past 24 hours.
Date / Time
(CDT)
Wind(knots) Conditions Visibility(km) Pressure(kPa) Air tempC) Relative humidity(%) Dew pointC) Wind Chill
21 October 2014
22:00 N 14 Ice Crystals 24 N/A 0 100 0 -6
21:00 N 14 Ice Crystals 24 101.3 0 100 0 -6
20:00 N 9 Ice Crystals 24 101.4 0 100 0 -5
19:00 N 14 Ice Crystals 24 101.4 -26 77 -29 -39
18:00 N 14 Ice Crystals 24 101.4 -26 77 -28 -39
17:00 N 19 Ice Crystals 24 101.4 -26 77 -29 -41
16:00 NNW 20 Ice Crystals 24 101.4 -26 77 -29 -42
15:00 N 17 Ice Crystals 24 101.5 -25 77 -28 -40
14:00 N 14 Ice Crystals 24 101.5 -25 77 -28 -38
13:00 NNW 16 Ice Crystals 16 101.5 -24 78 -27 -38
12:00 N 19 Ice Crystals 24 101.5 -24 79 -26 -38
11:00 NNW 17 Ice Crystals 16 101.5 -24 78 -27 -38
10:00 NNW 12 Ice Crystals 16 101.5 -23 80 -25 -34
9:00 N 18 Ice Crystals 24 101.6 -23 80 -25 -37
8:00 NNE 20 Ice Crystals 24 101.6 -22 79 -25 -36
7:00 N 12 Ice Crystals 24 101.6 -22 80 -25 -34
6:00 NNW 14 Ice Crystals 24 101.6 -22 79 -25 -35
5:00 NNW 12 Ice Crystals 24 101.7 -22 81 -24 -33
4:00 NW 15 Ice Crystals 24 101.7 -22 80 -25 -35
3:00 N 14 Ice Crystals 24 101.7 -22 81 -24 -34
2:00 N 7 Ice Crystals 24 101.8 -23 79 -26 -32
1:00 NNW 10 Clear 24 101.8 -24 80 -26 -34
0:00 NNE 20 Ice Crystals 24 101.8 -23 79 -26 -38
20 October 2014
23:00 NE 16 Ice Crystals 24 101.7 -21 81 -24 -34
22:00 NNE 13 Clear 24 101.7 -22 81 -24 -34
 
Map of Arctic - Eastern Arctic marine weather areas Baker Lake Airport Chesterfield Inlet Airport Coral Harbour Airport Gjoa Haven Airport Kugaaruk Airport Rankin Inlet Airport Shepherd Bay Airport Whale Cove Airport Arctic Bay Brevoort Island Qikiqtarjuaq Airport Cape Dorset Airport Cape Dyer Cape Hooper Clyde Airport Grise Fiord Airport Hall Beach Airport Igloolik Airport Iqaluit Airport Longstaff Bluff Pangnirtung Airport Pond Inlet Airport Repulse Bay Airport Resolute Airport Resolution Island Rowley Island Airport Taloyoak Airport Wager Bay Akulivik Airport Ivujivik Airport Puvirnituq Airport Kangiqsujuaq Airport Kangirsuk Airport Quaqtaq Airport Tasiujaq Airport Cape Kakkiviak Cape Kiglapait Nain Airport Saglek Cape Mercy Kimmirut Airport Aupaluk Airport Salluit Airport Kangiqsualujjuaq Airport Fort Ross
Legend: buoyBuoy land stationLand Station